createdAt,value
2023-03-13T00:00:29.061Z,9.30
2023-03-13T00:03:19.590Z,8.20
2023-03-13T00:05:49.987Z,8.00
2023-03-13T00:08:17.939Z,7.80
2023-03-13T00:10:46.134Z,8.60
2023-03-13T00:13:14.607Z,8.20
2023-03-13T00:16:04.183Z,7.40
2023-03-13T00:18:32.670Z,7.80
2023-03-13T00:21:10.782Z,7.90
2023-03-13T00:23:41.601Z,8.20
2023-03-13T00:26:18.276Z,7.80
2023-03-13T00:28:50.854Z,8.70
2023-03-13T00:31:24.421Z,8.70
2023-03-13T00:34:01.956Z,8.00
2023-03-13T00:36:40.454Z,8.20
2023-03-13T00:39:08.643Z,8.40
2023-03-13T00:41:38.067Z,7.80
2023-03-13T00:44:21.663Z,6.70
2023-03-13T00:46:51.891Z,6.90
2023-03-13T00:49:19.944Z,7.50
2023-03-13T00:51:50.593Z,7.30
2023-03-13T00:54:19.381Z,6.70
2023-03-13T00:56:50.723Z,6.80
2023-03-13T00:59:18.799Z,7.30
2023-03-13T01:01:47.905Z,6.30
2023-03-13T01:04:17.505Z,6.80
2023-03-13T01:06:48.556Z,6.20
2023-03-13T01:09:28.544Z,6.80
2023-03-13T01:11:58.576Z,6.30
2023-03-13T01:15:20.020Z,7.00
2023-03-13T01:18:55.229Z,6.90
2023-03-13T01:22:48.793Z,6.70
2023-03-13T01:26:37.582Z,5.70
2023-03-13T01:30:26.341Z,5.20
2023-03-13T01:33:57.693Z,4.80
2023-03-13T01:37:39.949Z,5.70
2023-03-13T01:44:23.779Z,5.60
2023-03-13T01:48:12.469Z,5.10
2023-03-13T01:52:09.161Z,5.30
2023-03-13T01:55:47.801Z,5.10
2023-03-13T01:59:35.333Z,6.40
2023-03-13T02:03:24.130Z,7.10
2023-03-13T02:06:55.698Z,6.30
2023-03-13T02:10:37.026Z,7.20
2023-03-13T02:14:08.920Z,7.70
2023-03-13T02:17:57.761Z,7.80
2023-03-13T02:21:49.634Z,7.40
2023-03-13T02:25:40.195Z,6.50
2023-03-13T02:29:18.879Z,7.60
2023-03-13T02:33:00.871Z,6.30
2023-03-13T02:36:29.637Z,6.50
2023-03-13T02:39:51.042Z,7.20
2023-03-13T02:43:04.900Z,7.50
2023-03-13T02:47:01.876Z,6.80
2023-03-13T02:50:41.255Z,7.00
2023-03-13T02:54:22.675Z,7.30
2023-03-13T03:01:24.361Z,7.70
2023-03-13T03:04:53.060Z,8.10
2023-03-13T03:08:34.520Z,7.10
2023-03-13T03:12:13.227Z,8.00
2023-03-13T03:15:55.429Z,7.00
2023-03-13T03:19:44.184Z,7.30
2023-03-13T03:23:15.504Z,7.10
2023-03-13T03:27:04.250Z,6.90
2023-03-13T03:30:44.180Z,7.60
2023-03-13T03:34:15.485Z,8.40
2023-03-13T03:37:45.355Z,9.00
2023-03-13T03:41:26.813Z,10.80
2023-03-13T03:45:15.529Z,10.50
2023-03-13T03:48:46.942Z,10.70
2023-03-13T03:52:35.673Z,9.90
2023-03-13T03:55:49.294Z,10.00
2023-03-13T03:59:38.104Z,9.20
2023-03-13T04:03:08.583Z,9.20
2023-03-13T04:06:57.398Z,10.20
2023-03-13T04:10:37.160Z,8.70
2023-03-13T04:13:54.007Z,7.40
2023-03-13T04:17:35.095Z,8.00
2023-03-13T04:21:08.343Z,8.10
2023-03-13T04:25:02.867Z,7.80
2023-03-13T04:28:42.647Z,7.80
2023-03-13T04:32:01.489Z,8.90
2023-03-13T04:35:56.071Z,8.50
2023-03-13T04:39:47.624Z,8.20
2023-03-13T04:43:36.341Z,7.90
2023-03-13T04:47:08.870Z,8.10
2023-03-13T04:50:34.903Z,9.70
2023-03-13T04:54:21.908Z,9.50
2023-03-13T04:58:13.313Z,8.80
2023-03-13T05:02:17.275Z,8.80
2023-03-13T05:06:24.101Z,8.80
2023-03-13T05:10:30.716Z,10.50
2023-03-13T05:14:20.102Z,11.70
2023-03-13T05:21:36.208Z,9.50
2023-03-13T05:25:33.006Z,11.20
2023-03-13T05:29:13.114Z,9.40
2023-03-13T05:32:43.128Z,9.60
2023-03-13T05:36:00.462Z,8.90
2023-03-13T05:39:55.119Z,7.50
2023-03-13T05:43:33.403Z,9.50
2023-03-13T05:46:40.180Z,7.00
2023-03-13T05:50:00.724Z,8.00
2023-03-13T05:53:41.163Z,8.50
2023-03-13T05:57:19.538Z,8.50
2023-03-13T06:00:54.799Z,8.40
2023-03-13T06:04:43.755Z,8.60
2023-03-13T06:08:21.871Z,8.90
2023-03-13T06:12:10.668Z,9.70
2023-03-13T06:15:45.645Z,8.80
2023-03-13T06:19:17.055Z,9.20
2023-03-13T06:22:31.227Z,8.60
2023-03-13T06:26:05.382Z,9.40
2023-03-13T06:29:54.166Z,9.80
2023-03-13T06:33:23.000Z,8.90
2023-03-13T06:37:04.396Z,9.80
2023-03-13T06:40:21.961Z,11.80
2023-03-13T06:44:03.681Z,9.90
2023-03-13T06:47:14.378Z,11.10
2023-03-13T06:50:24.708Z,11.30
2023-03-13T06:53:18.666Z,12.10
2023-03-13T06:56:50.421Z,12.10
2023-03-13T07:00:29.275Z,12.20
2023-03-13T07:04:18.072Z,11.60
2023-03-13T07:08:06.803Z,11.70
2023-03-13T07:11:32.723Z,12.50
2023-03-13T07:15:21.460Z,12.60
2023-03-13T07:18:43.365Z,13.20
2023-03-13T07:22:24.797Z,12.30
2023-03-13T07:25:53.377Z,13.60
2023-03-13T07:29:31.963Z,14.60
2023-03-13T07:32:46.386Z,12.50
2023-03-13T07:36:11.432Z,12.60
2023-03-13T07:39:11.027Z,12.70
2023-03-13T07:42:51.398Z,13.70
2023-03-13T07:46:06.073Z,10.90
2023-03-13T07:49:33.677Z,10.80
2023-03-13T07:53:14.280Z,11.50
2023-03-13T07:56:39.982Z,10.10
2023-03-13T08:00:09.947Z,9.00
2023-03-13T08:03:14.240Z,10.10
2023-03-13T08:06:56.776Z,10.30
2023-03-13T08:10:45.705Z,11.90
2023-03-13T08:14:28.432Z,10.30
2023-03-13T08:17:56.786Z,10.90
2023-03-13T08:21:01.964Z,9.80
2023-03-13T08:24:33.261Z,10.80
2023-03-13T08:28:23.480Z,12.00
2023-03-13T08:32:06.326Z,12.80
2023-03-13T08:35:48.472Z,11.70
2023-03-13T08:39:37.316Z,11.00
2023-03-13T08:43:07.325Z,10.90
2023-03-13T08:46:46.188Z,9.00
2023-03-13T08:50:13.473Z,7.90
2023-03-13T08:53:31.667Z,8.50
2023-03-13T08:57:10.841Z,8.00
2023-03-13T09:00:34.936Z,7.70
2023-03-13T09:04:14.771Z,8.00
2023-03-13T09:07:44.936Z,8.20
2023-03-13T09:11:22.518Z,7.30
2023-03-13T09:15:02.115Z,7.90
2023-03-13T09:18:50.842Z,7.00
2023-03-13T09:22:29.396Z,6.70
2023-03-13T09:26:18.222Z,7.30
2023-03-13T09:29:59.301Z,7.30
2023-03-13T09:33:30.549Z,7.20
2023-03-13T09:36:59.371Z,7.10
2023-03-13T09:40:59.856Z,6.90
2023-03-13T09:45:05.822Z,6.40
2023-03-13T09:49:00.644Z,5.40
2023-03-13T09:52:11.428Z,5.20
2023-03-13T09:55:44.403Z,5.80
2023-03-13T09:59:38.075Z,7.10
2023-03-13T10:03:37.971Z,5.80
2023-03-13T10:07:26.719Z,5.30
2023-03-13T10:11:05.506Z,5.50
2023-03-13T10:14:38.229Z,4.90
2023-03-13T10:17:26.860Z,5.90
2023-03-13T10:20:33.875Z,5.40
2023-03-13T10:24:20.494Z,5.40
2023-03-13T10:28:09.226Z,4.80
2023-03-13T10:31:47.919Z,4.70
2023-03-13T10:35:25.872Z,4.60
2023-03-13T10:39:04.549Z,4.30
2023-03-13T10:42:50.166Z,5.10
2023-03-13T10:46:31.740Z,4.70
2023-03-13T10:50:02.009Z,5.20
2023-03-13T10:53:21.112Z,4.70
2023-03-13T10:56:49.794Z,5.50
2023-03-13T11:00:41.323Z,4.70
2023-03-13T11:04:19.961Z,4.70
2023-03-13T11:07:22.314Z,4.10
2023-03-13T11:11:06.454Z,4.60
2023-03-13T11:13:42.912Z,4.30
2023-03-13T11:17:21.684Z,4.10
2023-03-13T11:21:17.389Z,4.00
2023-03-13T11:25:18.588Z,4.50
2023-03-13T11:28:47.290Z,4.60
2023-03-13T11:32:27.886Z,4.40
2023-03-13T11:35:53.370Z,4.10
2023-03-13T11:39:28.740Z,4.30
2023-03-13T11:43:23.977Z,3.40
2023-03-13T11:47:34.489Z,4.10
2023-03-13T11:51:07.108Z,3.60
2023-03-13T11:54:54.824Z,4.00
2023-03-13T11:58:17.760Z,4.00
2023-03-13T12:01:46.499Z,3.50
2023-03-13T12:05:19.800Z,4.40
2023-03-13T12:08:30.006Z,4.30
2023-03-13T12:12:35.914Z,3.80
2023-03-13T12:16:48.304Z,4.40
2023-03-13T12:20:39.894Z,3.70
2023-03-13T12:24:22.918Z,3.80
2023-03-13T12:27:37.254Z,4.20
2023-03-13T12:31:36.507Z,4.00
2023-03-13T12:35:25.169Z,3.90
2023-03-13T12:39:19.405Z,3.60
2023-03-13T12:42:31.223Z,4.00
2023-03-13T12:45:43.337Z,5.10
2023-03-13T12:49:22.030Z,4.30
2023-03-13T12:57:23.637Z,3.50
2023-03-13T13:00:28.398Z,3.80
2023-03-13T13:03:27.484Z,3.60
2023-03-13T13:06:41.146Z,4.30
2023-03-13T13:10:44.105Z,4.50
2023-03-13T13:14:31.858Z,4.20
2023-03-13T13:18:06.445Z,4.20
2023-03-13T13:21:41.871Z,4.00
2023-03-13T13:25:30.709Z,4.30
2023-03-13T13:29:19.468Z,4.20
2023-03-13T13:32:47.650Z,7.40
2023-03-13T13:35:30.429Z,5.90
2023-03-13T13:39:11.856Z,6.40
2023-03-13T13:43:09.318Z,4.30
2023-03-13T13:47:05.881Z,5.30
2023-03-13T13:53:54.436Z,4.10
2023-03-13T13:57:45.753Z,4.60
2023-03-13T14:01:36.754Z,5.10
2023-03-13T14:05:16.767Z,4.70
2023-03-13T14:09:02.079Z,5.10
2023-03-13T14:12:11.101Z,4.70
2023-03-13T14:16:15.139Z,4.50
2023-03-13T14:19:57.331Z,3.90
2023-03-13T14:23:39.811Z,3.80
2023-03-13T14:27:11.327Z,3.50
2023-03-13T14:30:27.167Z,3.50
2023-03-13T14:34:05.869Z,3.70
2023-03-13T14:37:18.374Z,3.90
2023-03-13T14:41:07.277Z,5.40
2023-03-13T14:44:59.578Z,4.70
2023-03-13T14:48:57.365Z,3.40
2023-03-13T14:52:16.099Z,2.80
2023-03-13T14:56:03.550Z,2.70
2023-03-13T14:59:31.324Z,3.40
2023-03-13T15:02:55.278Z,2.70
2023-03-13T15:06:14.338Z,2.80
2023-03-13T15:10:10.994Z,3.10
2023-03-13T15:13:43.305Z,3.00
2023-03-13T15:17:11.801Z,3.20
2023-03-13T15:19:52.719Z,2.80
2023-03-13T15:22:46.524Z,3.00
2023-03-13T15:25:35.754Z,3.10
2023-03-13T15:28:44.406Z,2.70
2023-03-13T15:32:15.876Z,3.50
2023-03-13T15:35:43.118Z,2.90
2023-03-13T15:39:22.888Z,2.20
2023-03-13T15:42:41.389Z,3.10
2023-03-13T15:46:17.979Z,3.60
2023-03-13T15:49:46.668Z,4.10
2023-03-13T15:53:15.224Z,2.80
2023-03-13T15:56:18.476Z,2.90
2023-03-13T15:59:46.610Z,3.20
2023-03-13T16:03:20.824Z,3.40
2023-03-13T16:07:02.511Z,3.60
2023-03-13T16:10:25.957Z,3.20
2023-03-13T16:14:14.831Z,3.60
2023-03-13T16:18:03.631Z,3.30
2023-03-13T16:21:45.194Z,3.70
2023-03-13T16:25:06.705Z,2.80
2023-03-13T16:28:38.175Z,3.20
2023-03-13T16:32:27.009Z,3.50
2023-03-13T16:35:54.551Z,3.30
2023-03-13T16:39:36.518Z,3.10
2023-03-13T16:43:25.250Z,3.90
2023-03-13T16:47:14.058Z,4.00
2023-03-13T16:50:54.898Z,3.60
2023-03-13T16:54:17.568Z,3.90
2023-03-13T16:57:54.851Z,4.10
2023-03-13T17:01:46.410Z,4.50
2023-03-13T17:05:18.192Z,4.10
2023-03-13T17:08:43.080Z,4.00
2023-03-13T17:12:31.927Z,4.70
2023-03-13T17:16:05.645Z,3.80
2023-03-13T17:19:07.591Z,3.70
2023-03-13T17:22:38.659Z,3.80
2023-03-13T17:26:14.685Z,4.10
2023-03-13T17:30:03.547Z,4.00
2023-03-13T17:33:35.143Z,4.70
2023-03-13T17:36:52.410Z,4.50
2023-03-13T17:40:32.100Z,3.90
2023-03-13T17:43:43.234Z,4.10
2023-03-13T17:47:32.035Z,4.40
2023-03-13T17:51:20.895Z,3.90
2023-03-13T17:54:26.847Z,4.10
2023-03-13T17:57:58.840Z,3.80
2023-03-13T18:01:27.702Z,3.70
2023-03-13T18:04:49.626Z,3.80
2023-03-13T18:08:20.504Z,4.20
2023-03-13T18:11:13.174Z,4.00
2023-03-13T18:17:02.096Z,4.40
2023-03-13T18:20:35.209Z,3.40
2023-03-13T18:24:06.328Z,3.60
2023-03-13T18:27:28.560Z,3.50
2023-03-13T18:30:52.014Z,3.70
2023-03-13T18:33:55.580Z,4.70
2023-03-13T18:37:24.305Z,4.10
2023-03-13T18:40:42.889Z,4.60
2023-03-13T18:44:26.239Z,3.40
2023-03-13T18:48:04.909Z,3.50
2023-03-13T18:51:26.353Z,3.90
2023-03-13T18:54:30.039Z,4.40
2023-03-13T18:58:12.696Z,4.20
2023-03-13T19:01:41.345Z,4.30
2023-03-13T19:05:14.756Z,4.10
2023-03-13T19:08:53.383Z,4.30
2023-03-13T19:12:24.957Z,4.60
2023-03-13T19:15:56.303Z,4.50
2023-03-13T19:19:37.782Z,4.20
2023-03-13T19:23:26.504Z,4.10
2023-03-13T19:27:27.282Z,4.30
2023-03-13T19:31:18.666Z,3.70
2023-03-13T19:35:07.591Z,3.60
2023-03-13T19:38:47.299Z,3.80
2023-03-13T19:42:28.950Z,4.10
2023-03-13T19:46:17.892Z,4.30
2023-03-13T19:50:06.769Z,4.40
2023-03-13T19:53:30.522Z,4.00
2023-03-13T19:57:09.170Z,5.10
2023-03-13T20:00:20.695Z,4.30
2023-03-13T20:03:49.174Z,4.20
2023-03-13T20:07:38.049Z,4.20
2023-03-13T20:11:26.899Z,5.10
2023-03-13T20:15:15.612Z,4.60
2023-03-13T20:19:04.456Z,4.30
2023-03-13T20:22:26.190Z,4.20
2023-03-13T20:26:07.529Z,4.20
2023-03-13T20:29:50.289Z,4.40
2023-03-13T20:33:13.764Z,4.50
2023-03-13T20:36:53.562Z,3.50
2023-03-13T20:40:42.315Z,4.10
2023-03-13T20:44:19.921Z,4.20
2023-03-13T20:48:08.626Z,4.50
2023-03-13T20:51:57.359Z,4.70
2023-03-13T20:55:46.178Z,5.00
2023-03-13T20:59:27.524Z,5.00
2023-03-13T21:03:15.014Z,4.70
2023-03-13T21:07:09.561Z,4.40
2023-03-13T21:10:51.233Z,5.10
2023-03-13T21:14:19.998Z,4.30
2023-03-13T21:18:08.715Z,4.50
2023-03-13T21:21:57.479Z,4.40
2023-03-13T21:25:46.394Z,4.70
2023-03-13T21:29:35.132Z,4.50
2023-03-13T21:33:23.434Z,4.90
2023-03-13T21:37:10.860Z,4.20
2023-03-13T21:40:52.429Z,4.60
2023-03-13T21:44:19.709Z,4.50
2023-03-13T21:48:08.466Z,4.90
2023-03-13T21:51:57.268Z,4.80
2023-03-13T21:55:46.203Z,4.30
2023-03-13T21:59:17.704Z,4.80
2023-03-13T22:02:47.947Z,3.90
2023-03-13T22:06:36.710Z,4.70
2023-03-13T22:10:25.575Z,5.10
2023-03-13T22:13:55.328Z,4.20
2023-03-13T22:17:36.459Z,4.20
2023-03-13T22:21:17.794Z,4.60
2023-03-13T22:24:49.262Z,4.50
2023-03-13T22:28:37.968Z,4.30
2023-03-13T22:32:19.191Z,4.90
2023-03-13T22:36:08.240Z,4.30
2023-03-13T22:39:55.605Z,5.10
2023-03-13T22:43:36.941Z,5.10
2023-03-13T22:47:25.764Z,4.50
2023-03-13T22:51:14.530Z,4.90
2023-03-13T22:54:55.681Z,5.00
2023-03-13T22:58:44.440Z,5.20
2023-03-13T23:02:33.224Z,4.60
2023-03-13T23:06:20.864Z,4.60
2023-03-13T23:10:09.609Z,4.70
2023-03-13T23:13:58.337Z,5.60
2023-03-13T23:17:39.816Z,5.00
2023-03-13T23:21:20.038Z,5.60
2023-03-13T23:25:01.190Z,4.70
2023-03-13T23:28:32.398Z,4.60
2023-03-13T23:32:21.120Z,5.00
2023-03-13T23:35:59.950Z,5.20
2023-03-13T23:39:51.584Z,4.80
2023-03-13T23:43:40.328Z,4.90
2023-03-13T23:47:19.154Z,4.80
2023-03-13T23:50:41.417Z,4.60
2023-03-13T23:54:28.793Z,5.10
2023-03-13T23:58:10.284Z,6.00
